Time;durP1;ratioP1;P1;durP2;ratioP2;P2;SDS_P1;SDS_P2;PMS_P1;PMS_P2;Temp;Humidity;BMP_temperature;BMP_pressure;BME280_temperature;BME280_humidity;BME280_pressure;Samples;Min_cycle;Max_cycle;Signal;HPM_P1;HPM_P2
2021/01/05 00:00:27;;;;;;;3.15;0.80;;;;;;;;;;5015403;28;20498;-59
2021/01/05 00:02:53;;;;;;;3.78;0.80;;;;;;;;;;5012100;28;20037;-59
2021/01/05 00:05:20;;;;;;;3.05;0.80;;;;;;;;;;5012948;28;20046;-59
2021/01/05 00:07:45;;;;;;;3.47;0.60;;;;;;;;;;5012053;28;20049;-58
2021/01/05 00:10:11;;;;;;;2.70;0.80;;;;;;;;;;5012005;28;20045;-59
2021/01/05 00:12:38;;;;;;;2.40;0.80;;;;;;;;;;5016341;28;20056;-59
2021/01/05 00:15:05;;;;;;;3.88;0.90;;;;;;;;;;5017942;28;20503;-59
2021/01/05 00:17:31;;;;;;;2.33;0.80;;;;;;;;;;5015346;28;20045;-58
2021/01/05 00:19:57;;;;;;;5.22;0.88;;;;;;;;;;5013326;28;20046;-59
2021/01/05 00:22:22;;;;;;;3.47;0.80;;;;;;;;;;5013680;28;20049;-59
2021/01/05 00:24:48;;;;;;;2.65;0.70;;;;;;;;;;5016513;28;20060;-60
2021/01/05 00:27:14;;;;;;;4.05;1.05;;;;;;;;;;5016319;28;20053;-58
2021/01/05 00:29:40;;;;;;;3.20;1.00;;;;;;;;;;5014914;28;20046;-60
2021/01/05 00:32:06;;;;;;;3.05;0.70;;;;;;;;;;5017752;28;20822;-58
2021/01/05 00:34:32;;;;;;;3.45;0.80;;;;;;;;;;5014858;28;20052;-58
2021/01/05 00:36:58;;;;;;;3.47;0.80;;;;;;;;;;5017865;28;20045;-57
2021/01/05 00:39:24;;;;;;;3.03;0.68;;;;;;;;;;5018771;28;20121;-59
2021/01/05 00:41:50;;;;;;;2.08;0.60;;;;;;;;;;5016501;28;20119;-59
2021/01/05 00:44:16;;;;;;;1.90;0.60;;;;;;;;;;5017095;28;20069;-58
2021/01/05 00:46:42;;;;;;;2.35;0.68;;;;;;;;;;5016446;28;20096;-58
2021/01/05 00:49:08;;;;;;;3.67;0.80;;;;;;;;;;5017375;28;20049;-58
2021/01/05 00:51:34;;;;;;;3.58;1.00;;;;;;;;;;5016044;28;20041;-59
2021/01/05 00:54:00;;;;;;;4.18;1.58;;;;;;;;;;5017340;28;20042;-59
2021/01/05 00:56:26;;;;;;;3.80;1.17;;;;;;;;;;5015536;28;20356;-60
2021/01/05 00:58:52;;;;;;;4.28;1.20;;;;;;;;;;5017367;28;20041;-58
2021/01/05 01:01:21;;;;;;;5.63;1.20;;;;;;;;;;5016367;28;20060;-58
2021/01/05 01:03:47;;;;;;;2.35;0.80;;;;;;;;;;5020797;28;20052;-57
2021/01/05 01:06:13;;;;;;;3.00;0.88;;;;;;;;;;5017962;28;20049;-58
2021/01/05 01:08:39;;;;;;;3.42;0.90;;;;;;;;;;5016619;28;20038;-58
2021/01/05 01:11:05;;;;;;;3.92;1.58;;;;;;;;;;5017839;28;20113;-58
2021/01/05 01:13:31;;;;;;;8.23;2.53;;;;;;;;;;5019949;28;20042;-59
2021/01/05 01:15:57;;;;;;;3.13;1.00;;;;;;;;;;5021124;28;20040;-59
2021/01/05 01:18:23;;;;;;;3.20;0.80;;;;;;;;;;5022522;28;20132;-59
2021/01/05 01:20:49;;;;;;;3.35;0.90;;;;;;;;;;5023040;28;20441;-59
2021/01/05 01:23:14;;;;;;;2.92;0.90;;;;;;;;;;5022592;28;20060;-59
2021/01/05 01:25:40;;;;;;;2.50;0.80;;;;;;;;;;5019228;28;20072;-58
2021/01/05 01:28:06;;;;;;;5.13;0.85;;;;;;;;;;5021366;28;20158;-59
2021/01/05 01:30:32;;;;;;;2.40;0.93;;;;;;;;;;5028110;28;20735;-59
2021/01/05 01:32:58;;;;;;;2.65;0.90;;;;;;;;;;5023379;28;20647;-58
2021/01/05 01:35:24;;;;;;;8.43;1.10;;;;;;;;;;5019676;28;20107;-58
2021/01/05 01:37:50;;;;;;;4.32;1.10;;;;;;;;;;5023255;28;20129;-58
2021/01/05 01:40:19;;;;;;;3.10;1.10;;;;;;;;;;5023440;28;20109;-58
2021/01/05 01:42:45;;;;;;;3.15;0.98;;;;;;;;;;5027912;28;20048;-58
2021/01/05 01:45:21;;;;;;;5.18;0.88;;;;;;;;;;5040751;28;20035;-58
2021/01/05 01:47:47;;;;;;;3.10;1.10;;;;;;;;;;5019468;28;20057;-57
2021/01/05 01:50:15;;;;;;;3.97;1.40;;;;;;;;;;5030197;28;20393;-58
2021/01/05 01:52:59;;;;;;;2.90;0.80;;;;;;;;;;5024242;28;20045;-59
2021/01/05 01:55:33;;;;;;;2.78;1.00;;;;;;;;;;5030029;28;20160;-58
2021/01/05 01:58:14;;;;;;;4.00;0.80;;;;;;;;;;5027680;28;20033;-58
2021/01/05 02:00:51;;;;;;;2.85;0.90;;;;;;;;;;5020662;28;20049;-58
2021/01/05 02:03:19;;;;;;;3.30;0.90;;;;;;;;;;5017230;28;20146;-59
2021/01/05 02:05:48;;;;;;;2.90;0.90;;;;;;;;;;5028933;28;21794;-59
2021/01/05 02:08:27;;;;;;;2.47;0.82;;;;;;;;;;5012181;28;20045;-58
2021/01/05 02:10:55;;;;;;;3.15;0.70;;;;;;;;;;5013083;28;20049;-58
2021/01/05 02:13:30;;;;;;;2.75;0.90;;;;;;;;;;5012944;28;20038;-59
2021/01/05 02:15:56;;;;;;;2.70;0.90;;;;;;;;;;5012931;28;20038;-58
2021/01/05 02:18:22;;;;;;;2.60;0.80;;;;;;;;;;5011935;28;21155;-58
2021/01/05 02:20:51;;;;;;;4.00;1.00;;;;;;;;;;5015556;28;20382;-58
2021/01/05 02:23:22;;;;;;;3.55;0.80;;;;;;;;;;5016390;28;20045;-59
2021/01/05 02:25:51;;;;;;;3.67;0.80;;;;;;;;;;4995933;28;20564;-59
2021/01/05 02:28:20;;;;;;;2.95;1.00;;;;;;;;;;5014472;28;20041;-59
2021/01/05 02:30:50;;;;;;;3.28;1.27;;;;;;;;;;5017745;28;20076;-59
2021/01/05 02:33:34;;;;;;;4.05;1.48;;;;;;;;;;5020025;28;20509;-58
2021/01/05 02:36:26;;;;;;;3.53;1.30;;;;;;;;;;5026760;28;20053;-58
2021/01/05 02:39:15;;;;;;;3.72;1.40;;;;;;;;;;5015437;28;20045;-59
2021/01/05 02:41:45;;;;;;;4.20;1.35;;;;;;;;;;5012875;28;20046;-59
2021/01/05 02:44:14;;;;;;;4.78;1.35;;;;;;;;;;5016360;28;20075;-59
2021/01/05 02:46:51;;;;;;;4.25;1.33;;;;;;;;;;5015599;28;20037;-58
2021/01/05 02:49:21;;;;;;;4.38;1.23;;;;;;;;;;5012679;28;20046;-58
2021/01/05 02:51:50;;;;;;;3.22;1.20;;;;;;;;;;5013248;28;20029;-58
2021/01/05 02:54:34;;;;;;;3.42;1.30;;;;;;;;;;5015511;28;20048;-60
2021/01/05 02:57:16;;;;;;;7.03;1.50;;;;;;;;;;5022895;28;20060;-58
2021/01/05 03:00:00;;;;;;;4.40;1.42;;;;;;;;;;5017594;28;20041;-58
2021/01/05 03:02:29;;;;;;;3.70;1.25;;;;;;;;;;5015959;28;20056;-59
2021/01/05 03:04:55;;;;;;;5.50;1.42;;;;;;;;;;5015294;28;20183;-59
2021/01/05 03:07:25;;;;;;;4.55;1.42;;;;;;;;;;5015665;28;20041;-58
2021/01/05 03:10:01;;;;;;;6.53;1.63;;;;;;;;;;5016055;28;20057;-59
2021/01/05 03:12:35;;;;;;;6.75;1.73;;;;;;;;;;5019758;28;20037;-58
2021/01/05 03:15:07;;;;;;;4.85;1.85;;;;;;;;;;5018048;28;20156;-58
2021/01/05 03:17:36;;;;;;;6.03;1.55;;;;;;;;;;5017403;28;20207;-59
2021/01/05 03:20:02;;;;;;;4.22;1.67;;;;;;;;;;5018738;28;20100;-57
2021/01/05 03:22:29;;;;;;;3.67;1.30;;;;;;;;;;5019742;28;20038;-57
2021/01/05 03:24:56;;;;;;;3.83;1.45;;;;;;;;;;5021314;28;20366;-58
2021/01/05 03:27:22;;;;;;;4.53;1.63;;;;;;;;;;5019233;28;20131;-58
2021/01/05 03:29:51;;;;;;;5.03;1.45;;;;;;;;;;5021361;28;20081;-58
2021/01/05 03:32:17;;;;;;;7.40;2.08;;;;;;;;;;5017745;28;20042;-59
2021/01/05 03:34:45;;;;;;;8.77;2.25;;;;;;;;;;5025196;28;20092;-58
2021/01/05 03:37:10;;;;;;;6.90;2.13;;;;;;;;;;5019207;28;20037;-58
2021/01/05 03:39:36;;;;;;;4.88;1.90;;;;;;;;;;5017939;28;20033;-58
2021/01/05 03:42:03;;;;;;;5.57;1.88;;;;;;;;;;5018770;28;20045;-58
2021/01/05 03:44:29;;;;;;;5.32;1.67;;;;;;;;;;5015277;28;20060;-58
2021/01/05 03:46:54;;;;;;;5.25;1.70;;;;;;;;;;5019727;28;20879;-57
2021/01/05 03:49:20;;;;;;;7.32;1.80;;;;;;;;;;5017643;28;20189;-57
2021/01/05 03:51:46;;;;;;;5.28;1.52;;;;;;;;;;5021085;28;20045;-57
2021/01/05 03:54:12;;;;;;;6.25;2.00;;;;;;;;;;5023989;28;20048;-57
2021/01/05 03:56:38;;;;;;;8.38;1.95;;;;;;;;;;5020292;28;20037;-58
2021/01/05 03:59:04;;;;;;;7.35;1.90;;;;;;;;;;5021886;28;20080;-58
2021/01/05 04:01:29;;;;;;;13.45;2.35;;;;;;;;;;5018778;28;20038;-58
2021/01/05 04:03:55;;;;;;;7.10;2.03;;;;;;;;;;5020181;28;20045;-57
2021/01/05 04:06:25;;;;;;;6.13;1.98;;;;;;;;;;5017845;28;20045;-58
2021/01/05 04:08:51;;;;;;;5.50;2.13;;;;;;;;;;5028236;28;20046;-57
2021/01/05 04:11:17;;;;;;;7.20;2.15;;;;;;;;;;5019713;28;20119;-60
2021/01/05 04:13:43;;;;;;;5.72;2.38;;;;;;;;;;5021827;28;20093;-59
2021/01/05 04:16:09;;;;;;;8.70;2.28;;;;;;;;;;5019202;28;20062;-59
2021/01/05 04:18:35;;;;;;;6.80;2.35;;;;;;;;;;5020620;28;20042;-59
2021/01/05 04:21:01;;;;;;;4.95;2.00;;;;;;;;;;5018767;28;20033;-59
2021/01/05 04:23:27;;;;;;;9.77;2.33;;;;;;;;;;5020884;28;20065;-59
2021/01/05 04:25:53;;;;;;;6.50;1.90;;;;;;;;;;5011287;28;20053;-59
2021/01/05 04:28:19;;;;;;;5.35;1.83;;;;;;;;;;5021120;28;20049;-59
2021/01/05 04:30:44;;;;;;;7.70;2.05;;;;;;;;;;5019552;28;20133;-59
2021/01/05 04:33:11;;;;;;;5.75;2.00;;;;;;;;;;5030188;28;20049;-59
2021/01/05 04:35:37;;;;;;;4.78;2.00;;;;;;;;;;5016740;28;20045;-57
2021/01/05 04:38:04;;;;;;;5.80;1.88;;;;;;;;;;5019302;28;20038;-58
2021/01/05 04:40:42;;;;;;;5.20;1.90;;;;;;;;;;5017540;28;20037;-57
2021/01/05 04:43:12;;;;;;;5.88;1.70;;;;;;;;;;5018491;28;20383;-58
2021/01/05 04:45:43;;;;;;;8.00;1.70;;;;;;;;;;5017634;28;20101;-59
2021/01/05 04:48:18;;;;;;;6.30;2.40;;;;;;;;;;5028623;28;20048;-59
2021/01/05 04:50:54;;;;;;;6.38;1.55;;;;;;;;;;5022588;28;20114;-59
2021/01/05 04:53:22;;;;;;;4.25;1.55;;;;;;;;;;5022956;28;20042;-57
2021/01/05 04:55:54;;;;;;;5.40;1.70;;;;;;;;;;5023462;28;20038;-59
2021/01/05 04:58:33;;;;;;;6.30;1.58;;;;;;;;;;5022109;28;20038;-58
2021/01/05 05:01:00;;;;;;;4.85;2.10;;;;;;;;;;5020043;28;20060;-59
2021/01/05 05:03:34;;;;;;;4.72;1.35;;;;;;;;;;5017416;28;20498;-59
2021/01/05 05:06:18;;;;;;;5.90;1.58;;;;;;;;;;5019537;28;20056;-58
2021/01/05 05:09:13;;;;;;;7.28;3.13;;;;;;;;;;5023052;28;20585;-59
2021/01/05 05:11:45;;;;;;;15.88;6.97;;;;;;;;;;5021111;28;20038;-58
2021/01/05 05:14:16;;;;;;;9.57;3.33;;;;;;;;;;5027406;28;20201;-59
2021/01/05 05:17:11;;;;;;;12.10;4.35;;;;;;;;;;5018872;28;20062;-60
2021/01/05 05:19:40;;;;;;;4.15;1.33;;;;;;;;;;5005302;28;20316;-59
2021/01/05 05:22:12;;;;;;;5.25;1.40;;;;;;;;;;5021557;28;20292;-58
2021/01/05 05:24:59;;;;;;;4.25;1.48;;;;;;;;;;5020597;28;20042;-59
2021/01/05 05:27:44;;;;;;;4.65;1.23;;;;;;;;;;5029927;28;20433;-58
2021/01/05 05:30:15;;;;;;;7.00;1.45;;;;;;;;;;5027973;28;20156;-58
2021/01/05 05:32:47;;;;;;;4.70;1.30;;;;;;;;;;5023365;28;20043;-59
2021/01/05 05:35:16;;;;;;;3.80;1.30;;;;;;;;;;5022360;28;20045;-59
2021/01/05 05:37:47;;;;;;;4.07;1.27;;;;;;;;;;5033325;28;20169;-58
2021/01/05 05:40:27;;;;;;;6.05;1.42;;;;;;;;;;5024560;28;20562;-58
2021/01/05 05:42:59;;;;;;;3.45;1.15;;;;;;;;;;5038890;28;20045;-59
2021/01/05 05:45:37;;;;;;;3.05;1.05;;;;;;;;;;5037751;28;20071;-59
2021/01/05 05:48:18;;;;;;;4.15;1.30;;;;;;;;;;5055883;28;20041;-59
2021/01/05 05:50:49;;;;;;;8.48;4.00;;;;;;;;;;5037186;28;20048;-58
2021/01/05 05:53:18;;;;;;;6.63;2.80;;;;;;;;;;5021563;28;20116;-59
2021/01/05 05:56:02;;;;;;;3.55;1.60;;;;;;;;;;5020900;28;20056;-59
2021/01/05 05:58:27;;;;;;;;;;;;;;;;;;5020669;28;20037;-58
2021/01/05 06:00:54;;;;;;;3.20;1.15;;;;;;;;;;5020261;28;19924;-57
2021/01/05 06:03:23;;;;;;;3.85;1.13;;;;;;;;;;5019857;28;20044;-57
2021/01/05 06:05:49;;;;;;;3.58;1.15;;;;;;;;;;5022033;28;20060;-58
2021/01/05 06:08:15;;;;;;;2.72;1.00;;;;;;;;;;5020254;28;20037;-58
2021/01/05 06:10:41;;;;;;;4.00;1.25;;;;;;;;;;5018566;28;20115;-58
2021/01/05 06:13:07;;;;;;;2.78;0.80;;;;;;;;;;5018347;28;20076;-59
2021/01/05 06:15:34;;;;;;;3.90;1.35;;;;;;;;;;5020317;28;20069;-57
2021/01/05 06:18:03;;;;;;;2.70;0.82;;;;;;;;;;5020535;28;20046;-58
2021/01/05 06:20:29;;;;;;;3.00;0.60;;;;;;;;;;5020574;28;20041;-57
2021/01/05 06:22:55;;;;;;;2.53;0.65;;;;;;;;;;5015697;28;20052;-57
2021/01/05 06:25:21;;;;;;;2.15;0.60;;;;;;;;;;5012322;28;20922;-58
2021/01/05 06:27:47;;;;;;;2.25;0.57;;;;;;;;;;5017441;28;20176;-58
2021/01/05 06:30:14;;;;;;;3.05;1.00;;;;;;;;;;5020070;28;20544;-58
2021/01/05 06:32:39;;;;;;;2.42;0.70;;;;;;;;;;5024189;28;20104;-58
2021/01/05 06:35:06;;;;;;;2.05;0.60;;;;;;;;;;5027428;28;20083;-58
2021/01/05 06:37:32;;;;;;;1.80;0.50;;;;;;;;;;5022324;28;20145;-58
2021/01/05 06:39:58;;;;;;;1.95;0.50;;;;;;;;;;5022197;28;20065;-57
2021/01/05 06:42:24;;;;;;;1.33;0.50;;;;;;;;;;5020227;28;20055;-57
2021/01/05 06:44:50;;;;;;;2.10;0.60;;;;;;;;;;5017439;28;20037;-58
2021/01/05 06:47:16;;;;;;;2.78;0.60;;;;;;;;;;5020199;28;20046;-58
2021/01/05 06:49:42;;;;;;;2.38;0.70;;;;;;;;;;5022901;28;20054;-58
2021/01/05 06:52:08;;;;;;;3.85;1.00;;;;;;;;;;5023587;28;20121;-57
2021/01/05 06:54:34;;;;;;;2.53;0.70;;;;;;;;;;5022308;28;20078;-58
2021/01/05 06:57:00;;;;;;;1.70;0.50;;;;;;;;;;5027346;28;20596;-59
2021/01/05 06:59:26;;;;;;;1.30;0.40;;;;;;;;;;5031872;28;20038;-59
2021/01/05 07:01:54;;;;;;;2.35;0.40;;;;;;;;;;5023983;28;20045;-58
2021/01/05 07:04:20;;;;;;;2.42;0.40;;;;;;;;;;5021609;28;20092;-57
2021/01/05 07:06:46;;;;;;;1.58;0.50;;;;;;;;;;5023789;28;20104;-58
2021/01/05 07:09:13;;;;;;;2.20;0.50;;;;;;;;;;5030644;28;20048;-58
2021/01/05 07:11:39;;;;;;;1.88;0.50;;;;;;;;;;5019543;28;20081;-58
2021/01/05 07:14:05;;;;;;;1.52;0.50;;;;;;;;;;5022548;28;20135;-58
2021/01/05 07:16:30;;;;;;;1.33;0.40;;;;;;;;;;5023574;28;20041;-57
2021/01/05 07:18:56;;;;;;;1.95;0.43;;;;;;;;;;5021284;28;20056;-57
2021/01/05 07:21:23;;;;;;;1.08;0.40;;;;;;;;;;5021639;28;20121;-58
2021/01/05 07:23:49;;;;;;;1.08;0.40;;;;;;;;;;5022058;28;20062;-58
2021/01/05 07:26:15;;;;;;;1.45;0.40;;;;;;;;;;5024053;28;20121;-57
2021/01/05 07:28:41;;;;;;;1.30;0.50;;;;;;;;;;5021505;28;20059;-57
2021/01/05 07:31:07;;;;;;;1.25;0.50;;;;;;;;;;5024428;28;20070;-57
2021/01/05 07:33:33;;;;;;;1.58;0.50;;;;;;;;;;5023320;28;20141;-58
2021/01/05 07:35:59;;;;;;;2.30;0.40;;;;;;;;;;5021826;28;20042;-57
2021/01/05 07:38:25;;;;;;;0.75;0.40;;;;;;;;;;5021179;28;20045;-57
2021/01/05 07:40:51;;;;;;;1.60;0.40;;;;;;;;;;5021255;28;20041;-57
2021/01/05 07:43:17;;;;;;;1.50;0.47;;;;;;;;;;5029516;28;20065;-58
2021/01/05 07:45:43;;;;;;;1.35;0.50;;;;;;;;;;5023389;28;20045;-58
2021/01/05 07:48:09;;;;;;;1.50;0.40;;;;;;;;;;5024075;28;20033;-58
2021/01/05 07:50:35;;;;;;;1.40;0.50;;;;;;;;;;5022135;28;20142;-57
2021/01/05 07:53:01;;;;;;;1.50;0.40;;;;;;;;;;5023023;28;20073;-58
2021/01/05 07:55:28;;;;;;;1.52;0.40;;;;;;;;;;5021378;28;20040;-57
2021/01/05 07:57:54;;;;;;;2.83;0.50;;;;;;;;;;5027893;28;20041;-56
2021/01/05 08:00:25;;;;;;;0.98;0.40;;;;;;;;;;5024753;28;20514;-57
2021/01/05 08:02:53;;;;;;;2.30;0.50;;;;;;;;;;5024228;28;20045;-57
2021/01/05 08:05:20;;;;;;;0.88;0.40;;;;;;;;;;5021748;28;20093;-57
2021/01/05 08:07:46;;;;;;;1.00;0.40;;;;;;;;;;5024967;28;20044;-57
2021/01/05 08:10:23;;;;;;;1.17;0.40;;;;;;;;;;5032009;28;20648;-57
2021/01/05 08:12:49;;;;;;;0.98;0.40;;;;;;;;;;5022079;28;20041;-56
2021/01/05 08:15:16;;;;;;;1.02;0.40;;;;;;;;;;5023242;28;20061;-56
2021/01/05 08:17:42;;;;;;;0.98;0.40;;;;;;;;;;5024684;28;20060;-56
2021/01/05 08:20:08;;;;;;;1.25;0.40;;;;;;;;;;5033462;28;20136;-57
2021/01/05 08:22:34;;;;;;;1.25;0.40;;;;;;;;;;5009619;28;20030;-57
2021/01/05 08:25:00;;;;;;;1.30;0.40;;;;;;;;;;5023631;28;20566;-57
2021/01/05 08:27:26;;;;;;;0.98;0.40;;;;;;;;;;5024113;28;20046;-57
2021/01/05 08:29:52;;;;;;;0.90;0.40;;;;;;;;;;5024085;28;20056;-57
2021/01/05 08:32:18;;;;;;;1.83;0.40;;;;;;;;;;5033518;28;20039;-56
2021/01/05 08:34:47;;;;;;;0.98;0.38;;;;;;;;;;5032723;28;20160;-56
2021/01/05 08:37:13;;;;;;;1.88;0.50;;;;;;;;;;5024808;28;20064;-57
2021/01/05 08:39:39;;;;;;;2.25;0.70;;;;;;;;;;5024231;28;20112;-56
2021/01/05 08:42:05;;;;;;;2.88;0.85;;;;;;;;;;5023022;28;20152;-57
2021/01/05 08:44:31;;;;;;;2.70;0.98;;;;;;;;;;5023258;28;20073;-57
2021/01/05 08:47:01;;;;;;;1.92;0.68;;;;;;;;;;5020858;28;20097;-56
2021/01/05 08:49:30;;;;;;;2.72;0.85;;;;;;;;;;5029422;28;20049;-55
2021/01/05 08:51:56;;;;;;;2.80;0.95;;;;;;;;;;5022439;28;20054;-56
2021/01/05 08:54:22;;;;;;;3.50;1.30;;;;;;;;;;5022097;28;20046;-54
2021/01/05 08:57:06;;;;;;;4.10;1.58;;;;;;;;;;5021594;28;20038;-57
2021/01/05 08:59:32;;;;;;;3.58;1.85;;;;;;;;;;5030550;28;20042;-56
2021/01/05 09:01:57;;;;;;;4.60;2.13;;;;;;;;;;5022684;28;20096;-56
2021/01/05 09:04:23;;;;;;;4.10;2.10;;;;;;;;;;5020815;28;20038;-54
2021/01/05 09:06:50;;;;;;;4.22;2.22;;;;;;;;;;5022911;28;20045;-56
2021/01/05 09:09:16;;;;;;;5.43;2.47;;;;;;;;;;5024446;28;20072;-56
2021/01/05 09:11:42;;;;;;;5.30;2.35;;;;;;;;;;5025756;28;20112;-55
2021/01/05 09:14:08;;;;;;;4.70;2.35;;;;;;;;;;5023795;28;20109;-56
2021/01/05 09:16:34;;;;;;;4.63;2.17;;;;;;;;;;5025842;28;20193;-57
2021/01/05 09:19:00;;;;;;;5.20;2.15;;;;;;;;;;5028039;28;20042;-57
2021/01/05 09:21:28;;;;;;;5.03;2.10;;;;;;;;;;5021540;28;20038;-56
2021/01/05 09:23:58;;;;;;;4.50;2.25;;;;;;;;;;5021078;28;22071;-55
2021/01/05 09:26:28;;;;;;;4.35;1.98;;;;;;;;;;5020590;28;20060;-57
2021/01/05 09:28:54;;;;;;;4.13;1.58;;;;;;;;;;5024411;28;20056;-56
2021/01/05 09:31:21;;;;;;;3.97;1.90;;;;;;;;;;5031913;28;20587;-56
2021/01/05 09:33:47;;;;;;;4.28;1.75;;;;;;;;;;5028825;28;20030;-56
2021/01/05 09:36:13;;;;;;;9.43;3.78;;;;;;;;;;5024967;28;22212;-56
2021/01/05 09:38:40;;;;;;;7.78;2.10;;;;;;;;;;5024679;28;20037;-57
2021/01/05 09:41:06;;;;;;;5.32;2.35;;;;;;;;;;5025181;28;20060;-56
2021/01/05 09:43:32;;;;;;;5.30;2.58;;;;;;;;;;5025958;28;20033;-57
2021/01/05 09:45:58;;;;;;;4.65;2.10;;;;;;;;;;5041304;28;20048;-56
2021/01/05 09:48:24;;;;;;;5.15;2.13;;;;;;;;;;5026579;28;20093;-56
2021/01/05 09:50:50;;;;;;;4.47;2.10;;;;;;;;;;5026892;28;20105;-56
2021/01/05 09:53:16;;;;;;;3.70;1.88;;;;;;;;;;5031453;28;20070;-57
2021/01/05 09:55:42;;;;;;;3.83;1.75;;;;;;;;;;5031687;28;20828;-56
2021/01/05 09:58:07;;;;;;;5.25;1.90;;;;;;;;;;5032320;28;20091;-56
2021/01/05 10:00:33;;;;;;;3.65;1.73;;;;;;;;;;5026127;28;20046;-55
2021/01/05 10:02:59;;;;;;;4.25;1.67;;;;;;;;;;5026747;28;20045;-56
2021/01/05 10:05:25;;;;;;;3.55;1.60;;;;;;;;;;5039802;28;20095;-56
2021/01/05 10:08:11;;;;;;;3.55;1.58;;;;;;;;;;5001936;28;20105;-58
2021/01/05 10:10:37;;;;;;;3.25;1.25;;;;;;;;;;5011024;28;20080;-57
2021/01/05 10:13:03;;;;;;;3.10;1.25;;;;;;;;;;5001922;28;20041;-56
2021/01/05 10:15:29;;;;;;;2.65;0.90;;;;;;;;;;4998109;28;20034;-58
2021/01/05 10:17:54;;;;;;;5.00;1.20;;;;;;;;;;5028422;28;20045;-58
2021/01/05 10:20:21;;;;;;;2.35;0.80;;;;;;;;;;5040193;28;20053;-59
2021/01/05 10:22:47;;;;;;;2.03;0.70;;;;;;;;;;5040961;28;20041;-57
2021/01/05 10:25:14;;;;;;;2.63;0.73;;;;;;;;;;5042009;28;20045;-55
2021/01/05 10:27:39;;;;;;;2.25;0.70;;;;;;;;;;5042019;28;20060;-57
2021/01/05 10:30:07;;;;;;;2.30;0.77;;;;;;;;;;5041071;28;20037;-58
2021/01/05 10:32:33;;;;;;;2.60;0.70;;;;;;;;;;5039462;28;20055;-57
2021/01/05 10:34:59;;;;;;;2.17;0.70;;;;;;;;;;5040540;28;20097;-56
2021/01/05 10:37:25;;;;;;;2.50;0.57;;;;;;;;;;5040875;28;20045;-57
2021/01/05 10:39:50;;;;;;;1.92;0.60;;;;;;;;;;5042470;28;20040;-59
2021/01/05 10:42:16;;;;;;;1.52;0.65;;;;;;;;;;5040755;28;20061;-58
2021/01/05 10:44:42;;;;;;;1.70;0.50;;;;;;;;;;5041899;28;20220;-58
2021/01/05 10:47:13;;;;;;;2.40;0.52;;;;;;;;;;5036105;28;20041;-58
2021/01/05 10:49:39;;;;;;;2.10;0.60;;;;;;;;;;5023232;28;20045;-58
2021/01/05 10:52:05;;;;;;;1.70;0.60;;;;;;;;;;5021382;28;20136;-58
2021/01/05 10:54:31;;;;;;;2.00;0.50;;;;;;;;;;5031690;28;20077;-58
2021/01/05 10:56:58;;;;;;;3.75;0.90;;;;;;;;;;5023368;28;20033;-55
2021/01/05 10:59:24;;;;;;;2.60;0.60;;;;;;;;;;5023127;28;20038;-56
2021/01/05 11:01:50;;;;;;;1.92;0.60;;;;;;;;;;5023830;28;20096;-57
2021/01/05 11:04:16;;;;;;;2.67;0.77;;;;;;;;;;5023435;28;20068;-57
2021/01/05 11:06:55;;;;;;;2.30;0.60;;;;;;;;;;5030320;28;20038;-58
2021/01/05 11:09:21;;;;;;;2.15;0.75;;;;;;;;;;5021796;28;20046;-58
2021/01/05 11:11:47;;;;;;;2.63;0.60;;;;;;;;;;5022871;28;20041;-56
2021/01/05 11:14:14;;;;;;;2.50;0.75;;;;;;;;;;5020572;28;20069;-58
2021/01/05 11:16:49;;;;;;;2.20;0.68;;;;;;;;;;5021706;28;20121;-58
2021/01/05 11:19:15;;;;;;;3.45;0.80;;;;;;;;;;5022142;28;20760;-57
2021/01/05 11:21:47;;;;;;;2.28;0.70;;;;;;;;;;5024874;28;20053;-56
2021/01/05 11:24:13;;;;;;;2.40;0.60;;;;;;;;;;5022352;28;20042;-57
2021/01/05 11:26:39;;;;;;;1.55;0.50;;;;;;;;;;5022455;28;20060;-57
2021/01/05 11:29:05;;;;;;;1.52;0.55;;;;;;;;;;5022645;28;20033;-56
2021/01/05 11:31:31;;;;;;;3.40;0.60;;;;;;;;;;5021620;28;20041;-56
2021/01/05 11:33:56;;;;;;;2.72;0.80;;;;;;;;;;5028375;28;20041;-56
2021/01/05 11:36:29;;;;;;;2.80;0.60;;;;;;;;;;5023289;28;20046;-57
2021/01/05 11:38:56;;;;;;;1.88;0.60;;;;;;;;;;5022157;28;20045;-57
2021/01/05 11:41:28;;;;;;;1.73;0.60;;;;;;;;;;5020483;28;20045;-57
2021/01/05 11:43:54;;;;;;;1.95;0.60;;;;;;;;;;5021968;28;20060;-57
2021/01/05 11:46:20;;;;;;;2.20;0.60;;;;;;;;;;5021450;28;20037;-57
2021/01/05 11:48:46;;;;;;;2.72;0.85;;;;;;;;;;5023344;28;20076;-57
2021/01/05 11:51:16;;;;;;;1.50;0.52;;;;;;;;;;5022150;28;20953;-56
2021/01/05 11:53:42;;;;;;;1.98;0.52;;;;;;;;;;5022050;28;20636;-56
2021/01/05 11:56:08;;;;;;;1.92;0.60;;;;;;;;;;5023043;28;20042;-56
2021/01/05 11:58:34;;;;;;;2.33;0.70;;;;;;;;;;5018622;28;20046;-57
2021/01/05 12:01:00;;;;;;;2.88;0.80;;;;;;;;;;5023419;28;20048;-55
2021/01/05 12:03:26;;;;;;;1.67;0.60;;;;;;;;;;5024679;28;20109;-56
2021/01/05 12:05:52;;;;;;;3.42;1.15;;;;;;;;;;5025545;28;20141;-57
2021/01/05 12:08:17;;;;;;;1.88;0.60;;;;;;;;;;5023998;28;20042;-56
2021/01/05 12:10:45;;;;;;;2.20;0.60;;;;;;;;;;5032171;28;20049;-57
2021/01/05 12:13:11;;;;;;;2.35;0.60;;;;;;;;;;5031286;28;20037;-57
2021/01/05 12:15:37;;;;;;;2.45;0.68;;;;;;;;;;5022735;28;20038;-57
2021/01/05 12:18:03;;;;;;;2.35;0.73;;;;;;;;;;5021684;28;20407;-58
2021/01/05 12:20:29;;;;;;;1.90;0.73;;;;;;;;;;5021231;28;20778;-57
2021/01/05 12:22:55;;;;;;;2.60;0.60;;;;;;;;;;5021904;28;20570;-56
2021/01/05 12:25:21;;;;;;;2.20;0.55;;;;;;;;;;5020744;28;20097;-57
2021/01/05 12:27:47;;;;;;;2.05;0.52;;;;;;;;;;5037643;28;20076;-57
2021/01/05 12:30:13;;;;;;;2.30;0.60;;;;;;;;;;5022790;28;20053;-57
2021/01/05 12:32:39;;;;;;;1.77;0.60;;;;;;;;;;5022600;28;20037;-57
2021/01/05 12:35:05;;;;;;;2.22;0.60;;;;;;;;;;5024532;28;20082;-58
2021/01/05 12:37:31;;;;;;;1.80;0.50;;;;;;;;;;5026130;28;20030;-57
2021/01/05 12:39:56;;;;;;;4.25;0.70;;;;;;;;;;5020885;28;20064;-57
2021/01/05 12:42:24;;;;;;;1.55;0.45;;;;;;;;;;5020449;28;20417;-58
2021/01/05 12:44:52;;;;;;;2.55;0.57;;;;;;;;;;5027453;28;20045;-58
2021/01/05 12:47:18;;;;;;;1.92;0.60;;;;;;;;;;5024194;28;20048;-57
2021/01/05 12:49:44;;;;;;;1.60;0.50;;;;;;;;;;5023438;28;20049;-57
2021/01/05 12:52:11;;;;;;;1.15;0.40;;;;;;;;;;5022957;28;21620;-57
2021/01/05 12:54:37;;;;;;;1.42;0.50;;;;;;;;;;5020731;28;20049;-57
2021/01/05 12:57:04;;;;;;;1.75;0.50;;;;;;;;;;5024006;28;20073;-57
2021/01/05 12:59:30;;;;;;;2.80;0.60;;;;;;;;;;5021716;28;20490;-57
2021/01/05 13:01:57;;;;;;;1.55;0.45;;;;;;;;;;5021465;28;20056;-57
2021/01/05 13:04:23;;;;;;;1.80;0.50;;;;;;;;;;5028711;28;20041;-57
2021/01/05 13:06:49;;;;;;;1.92;0.55;;;;;;;;;;5042583;28;20040;-58
2021/01/05 13:09:15;;;;;;;1.42;0.50;;;;;;;;;;5045422;28;20045;-57
2021/01/05 13:11:42;;;;;;;1.63;0.50;;;;;;;;;;5044310;28;20056;-55
2021/01/05 13:14:08;;;;;;;1.20;0.40;;;;;;;;;;5046709;28;20055;-54
2021/01/05 13:16:34;;;;;;;1.67;0.50;;;;;;;;;;5046539;28;20587;-56
2021/01/05 13:19:01;;;;;;;1.67;0.57;;;;;;;;;;5043722;28;20048;-58
2021/01/05 13:21:29;;;;;;;2.58;1.00;;;;;;;;;;5044651;28;20048;-58
2021/01/05 13:24:05;;;;;;;2.03;0.50;;;;;;;;;;5045307;28;20513;-58
2021/01/05 13:26:31;;;;;;;1.33;0.45;;;;;;;;;;5045219;28;20262;-58
2021/01/05 13:28:57;;;;;;;2.47;0.50;;;;;;;;;;5045471;28;20048;-58
2021/01/05 13:31:23;;;;;;;2.40;0.60;;;;;;;;;;5027409;28;20046;-58
2021/01/05 13:33:49;;;;;;;2.00;0.50;;;;;;;;;;5024632;28;20042;-58
2021/01/05 13:36:22;;;;;;;1.75;0.60;;;;;;;;;;5024740;28;20039;-57
2021/01/05 13:38:48;;;;;;;1.23;0.40;;;;;;;;;;5023676;28;20045;-57
2021/01/05 13:41:21;;;;;;;1.23;0.47;;;;;;;;;;5023531;28;20052;-56
2021/01/05 13:43:47;;;;;;;2.83;0.50;;;;;;;;;;5025469;28;20056;-58
2021/01/05 13:46:18;;;;;;;4.30;1.50;;;;;;;;;;5021990;28;20045;-56
2021/01/05 13:48:44;;;;;;;1.73;0.52;;;;;;;;;;5030653;28;20037;-57
2021/01/05 13:51:10;;;;;;;2.08;0.50;;;;;;;;;;5021929;28;20049;-57
2021/01/05 13:53:36;;;;;;;1.33;0.50;;;;;;;;;;5022723;28;20033;-58
2021/01/05 13:56:02;;;;;;;2.17;0.43;;;;;;;;;;5024950;28;20041;-58
2021/01/05 13:58:28;;;;;;;1.98;0.57;;;;;;;;;;5024898;28;20034;-58
2021/01/05 14:00:53;;;;;;;1.13;0.40;;;;;;;;;;5029917;28;20038;-57
2021/01/05 14:03:19;;;;;;;2.50;0.70;;;;;;;;;;5022179;28;20037;-58
2021/01/05 14:05:45;;;;;;;1.73;0.50;;;;;;;;;;5023767;28;20038;-58
2021/01/05 14:08:11;;;;;;;2.42;0.57;;;;;;;;;;5026178;28;20038;-58
2021/01/05 14:10:37;;;;;;;1.52;0.50;;;;;;;;;;5025031;28;20042;-59
2021/01/05 14:13:03;;;;;;;1.55;0.60;;;;;;;;;;5028446;28;20053;-58
2021/01/05 14:15:29;;;;;;;2.60;0.60;;;;;;;;;;5024528;28;20096;-59
2021/01/05 14:17:54;;;;;;;1.77;0.50;;;;;;;;;;5034513;28;20052;-57
2021/01/05 14:20:20;;;;;;;2.10;0.50;;;;;;;;;;5022837;28;20044;-59
2021/01/05 14:22:46;;;;;;;1.98;0.50;;;;;;;;;;5026887;28;20061;-61
2021/01/05 14:25:12;;;;;;;2.83;0.80;;;;;;;;;;5025742;28;20046;-61
2021/01/05 14:27:38;;;;;;;1.42;0.43;;;;;;;;;;5024167;28;20056;-61
2021/01/05 14:30:04;;;;;;;1.33;0.50;;;;;;;;;;5025095;28;20077;-58
2021/01/05 14:32:30;;;;;;;1.02;0.40;;;;;;;;;;5024809;28;21102;-57
2021/01/05 14:34:56;;;;;;;1.05;0.40;;;;;;;;;;5026406;28;20061;-58
2021/01/05 14:37:22;;;;;;;1.38;0.45;;;;;;;;;;5023815;28;20038;-58
2021/01/05 14:39:48;;;;;;;2.15;0.40;;;;;;;;;;5027100;28;20034;-58
2021/01/05 14:42:15;;;;;;;1.23;0.50;;;;;;;;;;5033371;28;20068;-59
2021/01/05 14:44:41;;;;;;;1.58;0.47;;;;;;;;;;5025221;28;20105;-58
2021/01/05 14:47:18;;;;;;;4.07;0.70;;;;;;;;;;5027070;28;20072;-58